createdAt,value
2019-01-06T00:00:46.169Z,15.47
2019-01-06T00:06:41.155Z,13.9
2019-01-06T00:12:36.188Z,13.8
2019-01-06T00:18:31.168Z,15.04
2019-01-06T00:24:26.177Z,18.3
2019-01-06T00:30:21.182Z,14.36
2019-01-06T00:36:16.155Z,19.91
2019-01-06T00:42:11.178Z,15.53
2019-01-06T00:48:06.210Z,16.47
2019-01-06T00:54:01.166Z,15.68
2019-01-06T00:59:56.163Z,14.57
2019-01-06T01:05:51.161Z,17.46
2019-01-06T01:11:46.163Z,19.68
2019-01-06T01:17:41.237Z,19.17
2019-01-06T01:23:36.224Z,19.46
2019-01-06T01:29:31.188Z,21.05
2019-01-06T01:35:26.198Z,20.9
2019-01-06T01:41:21.194Z,16.86
2019-01-06T01:47:16.196Z,18.22
2019-01-06T01:53:11.194Z,16.73
2019-01-06T01:59:06.190Z,17.29
2019-01-06T02:05:01.192Z,17.65
2019-01-06T02:10:56.282Z,19.42
2019-01-06T02:16:51.201Z,19.18
2019-01-06T02:22:46.257Z,17.7
2019-01-06T02:28:41.190Z,23.82
2019-01-06T02:34:36.200Z,20.06
2019-01-06T02:40:31.218Z,20.05
2019-01-06T02:46:26.261Z,20.51
2019-01-06T02:52:21.209Z,21.64
2019-01-06T02:58:16.251Z,22.95
2019-01-06T03:04:11.265Z,19.52
2019-01-06T03:10:06.215Z,20.49
2019-01-06T03:16:01.277Z,21.62
2019-01-06T03:21:56.225Z,22.32
2019-01-06T03:27:51.231Z,21.01
2019-01-06T03:33:46.250Z,21.88
2019-01-06T03:39:41.262Z,20.83
2019-01-06T03:45:36.288Z,16.26
2019-01-06T03:51:31.238Z,15.76
2019-01-06T03:57:26.282Z,19.48
2019-01-06T04:03:21.258Z,14.87
2019-01-06T04:09:16.239Z,16.65
2019-01-06T04:15:11.226Z,15.71
2019-01-06T04:21:06.254Z,16.42
2019-01-06T04:27:01.258Z,16.49
2019-01-06T04:32:56.270Z,16.51
2019-01-06T04:38:51.263Z,17.06
2019-01-06T04:44:46.247Z,17.76
2019-01-06T04:50:41.265Z,18.66
2019-01-06T04:56:36.321Z,16.49
2019-01-06T05:02:31.288Z,17.56
2019-01-06T05:08:26.275Z,18.76
2019-01-06T05:14:21.270Z,16.92
2019-01-06T05:20:16.268Z,18.23
2019-01-06T05:26:11.260Z,17.11
2019-01-06T05:32:06.266Z,16.99
2019-01-06T05:38:01.288Z,16.76
2019-01-06T05:43:56.317Z,14.59
2019-01-06T05:49:51.286Z,16.21
2019-01-06T05:55:46.276Z,15.73
2019-01-06T06:01:41.281Z,14.81
2019-01-06T06:07:36.306Z,12.57
2019-01-06T06:13:31.283Z,12.98
2019-01-06T06:19:26.359Z,12.26
2019-01-06T06:25:21.311Z,11.08
2019-01-06T06:31:16.306Z,13.14
2019-01-06T06:37:11.281Z,14.56
2019-01-06T06:43:06.290Z,14.37
2019-01-06T06:49:01.299Z,13.26
2019-01-06T06:54:57.720Z,17.74
2019-01-06T07:00:51.324Z,18.94
2019-01-06T07:06:46.343Z,18.87
2019-01-06T07:12:41.314Z,17.9
2019-01-06T07:18:36.312Z,20.8
2019-01-06T07:24:31.301Z,21.02
2019-01-06T07:30:26.307Z,22.49
2019-01-06T07:36:21.347Z,22.87
2019-01-06T07:42:16.347Z,22.6
2019-01-06T07:48:11.319Z,21.92
2019-01-06T07:54:06.317Z,21.99
2019-01-06T08:00:01.359Z,25.93
2019-01-06T08:05:56.325Z,25.23
2019-01-06T08:11:51.387Z,35.1
2019-01-06T08:17:46.366Z,42.41
2019-01-06T08:23:41.406Z,34.06
2019-01-06T08:29:36.382Z,38.37
2019-01-06T08:35:31.375Z,52.79
2019-01-06T08:41:26.370Z,46.49
2019-01-06T08:47:21.335Z,49.71
2019-01-06T08:53:16.353Z,43.09
2019-01-06T08:59:11.380Z,49.87
2019-01-06T09:05:06.423Z,43.28
2019-01-06T09:11:01.348Z,44.43
2019-01-06T09:16:56.369Z,46.03
2019-01-06T09:22:51.400Z,52.85
2019-01-06T09:28:46.357Z,52.17
2019-01-06T09:34:41.351Z,44.83
2019-01-06T09:40:36.373Z,47.6
2019-01-06T09:46:31.353Z,50
2019-01-06T09:52:26.368Z,48.13
2019-01-06T09:58:21.376Z,54.82
2019-01-06T10:04:16.383Z,57.77
2019-01-06T10:10:11.390Z,52.92
2019-01-06T10:16:06.422Z,50.8
2019-01-06T10:22:01.381Z,46.26
2019-01-06T10:27:56.403Z,43.78
2019-01-06T10:33:51.434Z,47.29
2019-01-06T10:39:46.375Z,46.63
2019-01-06T10:45:41.416Z,48.68
2019-01-06T10:51:36.411Z,40.72
2019-01-06T10:57:31.432Z,42.51
2019-01-06T11:03:26.394Z,38.8
2019-01-06T11:09:21.420Z,42.17
2019-01-06T11:15:16.394Z,40.07
2019-01-06T11:21:11.395Z,37.27
2019-01-06T11:27:06.399Z,35.94
2019-01-06T11:33:01.423Z,39.47
2019-01-06T11:38:56.457Z,44.68
2019-01-06T11:44:51.436Z,39.82
2019-01-06T11:50:46.432Z,43.18
2019-01-06T11:56:41.468Z,43.23
2019-01-06T12:02:39.102Z,43.31
2019-01-06T12:08:31.450Z,50.26
2019-01-06T12:14:26.446Z,44.35
2019-01-06T12:20:21.436Z,46.1
2019-01-06T12:26:16.455Z,44.23
2019-01-06T12:32:11.455Z,41.77
2019-01-06T12:38:06.452Z,48.32
2019-01-06T12:44:01.447Z,49
2019-01-06T12:49:56.451Z,48.5
2019-01-06T12:55:51.523Z,41.27
2019-01-06T13:01:46.475Z,33.17
2019-01-06T13:07:41.488Z,33.8
2019-01-06T13:13:37.100Z,28.45
2019-01-06T13:19:31.458Z,25.15
2019-01-06T13:25:26.511Z,26.27
2019-01-06T13:31:21.563Z,25.97
2019-01-06T13:37:16.527Z,22.83
2019-01-06T13:43:11.476Z,22.08
2019-01-06T13:49:06.478Z,24.25
2019-01-06T13:55:01.495Z,26.55
2019-01-06T14:00:56.501Z,29.75
2019-01-06T14:06:51.521Z,26.28
2019-01-06T14:12:46.512Z,26.37
2019-01-06T14:18:41.488Z,23.78
2019-01-06T14:24:36.535Z,25.71
2019-01-06T14:30:31.568Z,25.95
2019-01-06T14:36:26.534Z,21.3
2019-01-06T14:42:21.545Z,22.76
2019-01-06T14:48:16.538Z,22.74
2019-01-06T14:54:11.556Z,22.82
2019-01-06T15:00:06.520Z,26.83
2019-01-06T15:06:01.567Z,27.55
2019-01-06T15:11:56.578Z,31.88
2019-01-06T15:17:51.524Z,32.89
2019-01-06T15:23:46.575Z,27.98
2019-01-06T15:29:41.568Z,28.96
2019-01-06T15:35:36.565Z,35.88
2019-01-06T15:41:31.575Z,37.54
2019-01-06T15:47:26.613Z,30.13
2019-01-06T15:53:21.600Z,28.79
2019-01-06T15:59:16.558Z,25.87
2019-01-06T16:05:11.565Z,26.39
2019-01-06T16:11:06.599Z,25.71
2019-01-06T16:17:01.595Z,40.14
2019-01-06T16:22:56.619Z,45.47
2019-01-06T16:28:51.596Z,47.9
2019-01-06T16:34:46.646Z,40.62
2019-01-06T16:40:41.580Z,37.63
2019-01-06T16:46:36.601Z,38.27
2019-01-06T16:52:31.626Z,37.96
2019-01-06T16:58:26.585Z,36.83
2019-01-06T17:04:21.594Z,119.1
2019-01-06T17:10:16.673Z,49.88
2019-01-06T17:16:11.636Z,35.83
2019-01-06T17:22:06.607Z,33.02
2019-01-06T17:28:01.615Z,32.24
2019-01-06T17:33:56.616Z,31.3
2019-01-06T17:39:51.621Z,28.34
2019-01-06T17:45:46.634Z,27.45
2019-01-06T17:51:41.622Z,26.46
2019-01-06T17:57:36.636Z,20.66
2019-01-06T18:03:31.640Z,41.67
2019-01-06T18:09:26.640Z,44.07
2019-01-06T18:15:21.628Z,47.5
2019-01-06T18:21:16.649Z,36.01
2019-01-06T18:27:11.639Z,38.08
2019-01-06T18:33:06.665Z,33.96
2019-01-06T18:39:01.658Z,28.72
2019-01-06T18:44:56.702Z,23.62
2019-01-06T18:50:51.734Z,49.89
2019-01-06T18:56:46.651Z,43.92
2019-01-06T19:02:41.648Z,41.35
2019-01-06T19:08:36.651Z,30.97
2019-01-06T19:14:31.665Z,28.66
2019-01-06T19:20:26.706Z,26.29
2019-01-06T19:26:21.672Z,31.3
2019-01-06T19:32:16.682Z,24.95
2019-01-06T19:38:11.701Z,32.18
2019-01-06T19:44:06.670Z,56.14
2019-01-06T19:50:01.683Z,41.76
2019-01-06T19:55:56.706Z,47.22
2019-01-06T20:01:51.735Z,41.69
2019-01-06T20:07:46.718Z,39.44
2019-01-06T20:13:41.695Z,46.98
2019-01-06T20:19:36.679Z,32.99
2019-01-06T20:25:31.719Z,32.15
2019-01-06T20:31:26.707Z,27.08
2019-01-06T20:37:21.694Z,22.4
2019-01-06T20:43:16.718Z,24.29
2019-01-06T20:49:11.735Z,28.86
2019-01-06T20:55:06.704Z,20.84
2019-01-06T21:01:01.722Z,14.67
2019-01-06T21:06:56.711Z,20.35
2019-01-06T21:12:51.705Z,29.89
2019-01-06T21:18:46.734Z,23.27
2019-01-06T21:24:41.738Z,21.2
2019-01-06T21:30:36.718Z,21.39
2019-01-06T21:36:31.736Z,30.46
2019-01-06T21:42:26.716Z,38.41
2019-01-06T21:48:21.732Z,28.09
2019-01-06T21:54:16.748Z,25.09
2019-01-06T22:00:11.768Z,29.6
2019-01-06T22:06:06.717Z,30.18
2019-01-06T22:12:01.729Z,24.12
2019-01-06T22:17:56.792Z,26.8
2019-01-06T22:23:51.782Z,29.26
2019-01-06T22:29:46.771Z,28.5
2019-01-06T22:35:41.761Z,23.34
2019-01-06T22:41:36.780Z,22.25
2019-01-06T22:47:31.787Z,18.81
2019-01-06T22:53:26.755Z,18.55
2019-01-06T22:59:21.795Z,19.05
2019-01-06T23:05:16.779Z,17.06
2019-01-06T23:11:11.773Z,16.87
2019-01-06T23:17:06.757Z,18.27
2019-01-06T23:23:01.759Z,18.22
2019-01-06T23:28:56.758Z,16.92
2019-01-06T23:34:51.754Z,18.16
2019-01-06T23:40:46.787Z,18.51
2019-01-06T23:46:41.809Z,17.93
2019-01-06T23:52:36.806Z,21.79
2019-01-06T23:58:31.772Z,19.43
